Time;durP1;ratioP1;P1;durP2;ratioP2;P2;SDS_P1;SDS_P2;PMS_P1;PMS_P2;Temp;Humidity;BMP_temperature;BMP_pressure;BME280_temperature;BME280_humidity;BME280_pressure;Samples;Min_cycle;Max_cycle;Signal;HPM_P1;HPM_P2
2023/03/12 00:01:23;;;;;;;6.95;2.95;;;8.40;99.90;;;;;;5033973;28;20114;-47
2023/03/12 00:03:49;;;;;;;5.93;3.13;;;8.40;99.90;;;;;;5032531;28;20034;-46
2023/03/12 00:06:16;;;;;;;5.68;2.85;;;8.40;99.90;;;;;;5033646;28;20093;-39
2023/03/12 00:08:42;;;;;;;4.20;2.70;;;8.40;99.90;;;;;;5033926;28;20501;-40
2023/03/12 00:11:13;;;;;;;4.93;2.95;;;8.40;99.90;;;;;;5033973;28;20030;-41
2023/03/12 00:13:39;;;;;;;6.28;3.17;;;8.40;99.90;;;;;;5033675;28;20033;-37
2023/03/12 00:16:14;;;;;;;6.40;2.92;;;8.40;99.90;;;;;;5033535;28;20033;-41
2023/03/12 00:18:41;;;;;;;5.95;3.30;;;8.40;99.90;;;;;;5034449;28;20402;-41
2023/03/12 00:21:07;;;;;;;6.63;3.13;;;8.40;99.90;;;;;;5032520;28;20100;-38
2023/03/12 00:23:34;;;;;;;5.72;2.90;;;8.40;99.90;;;;;;5033787;28;20502;-36
2023/03/12 00:26:08;;;;;;;5.80;2.80;;;8.40;99.90;;;;;;5033258;28;20025;-40
2023/03/12 00:28:34;;;;;;;5.20;2.83;;;8.30;99.90;;;;;;5033444;28;20071;-44
2023/03/12 00:31:01;;;;;;;5.80;2.95;;;8.30;99.90;;;;;;5033266;28;20045;-37
2023/03/12 00:33:28;;;;;;;4.85;2.80;;;8.40;99.90;;;;;;5033521;28;20518;-42
2023/03/12 00:35:54;;;;;;;5.55;3.13;;;8.30;99.90;;;;;;5033842;28;20037;-41
2023/03/12 00:38:20;;;;;;;9.68;3.50;;;8.30;99.90;;;;;;5033463;28;20053;-37
2023/03/12 00:40:46;;;;;;;5.82;2.92;;;8.30;99.90;;;;;;5034482;28;20443;-37
2023/03/12 00:43:12;;;;;;;5.35;2.58;;;8.30;99.90;;;;;;5033279;28;20403;-45
2023/03/12 00:45:38;;;;;;;4.82;2.80;;;8.40;99.90;;;;;;5032828;28;20029;-42
2023/03/12 00:48:03;;;;;;;4.18;2.47;;;8.40;99.90;;;;;;5033863;28;20152;-39
2023/03/12 00:50:29;;;;;;;5.25;2.85;;;8.30;99.90;;;;;;5033446;28;20026;-36
2023/03/12 00:52:55;;;;;;;6.60;2.90;;;8.30;99.90;;;;;;5036304;28;20025;-37
2023/03/12 00:55:20;;;;;;;5.95;2.70;;;8.30;99.90;;;;;;5049706;28;20025;-37
2023/03/12 00:57:46;;;;;;;4.88;2.83;;;8.30;99.90;;;;;;5032953;28;20052;-45
2023/03/12 01:00:12;;;;;;;6.22;2.85;;;8.30;99.90;;;;;;5048015;28;20060;-40
2023/03/12 01:02:38;;;;;;;6.20;2.60;;;8.30;99.90;;;;;;5033025;28;20047;-40
2023/03/12 01:05:07;;;;;;;4.22;2.67;;;8.50;99.90;;;;;;5032937;28;20072;-39
2023/03/12 01:07:32;;;;;;;5.63;2.55;;;8.80;99.90;;;;;;5033699;28;20487;-37
2023/03/12 01:09:58;;;;;;;4.47;2.60;;;9.00;99.90;;;;;;5034517;28;20040;-41
2023/03/12 01:12:25;;;;;;;4.70;2.63;;;9.00;99.90;;;;;;5032503;28;20026;-43
2023/03/12 01:14:51;;;;;;;5.22;3.20;;;9.00;99.90;;;;;;5032371;28;20100;-42
2023/03/12 01:17:16;;;;;;;5.63;2.47;;;8.90;99.90;;;;;;5032196;28;20116;-38
2023/03/12 01:19:42;;;;;;;8.02;3.38;;;8.80;99.90;;;;;;5032480;28;20025;-43
2023/03/12 01:22:08;;;;;;;5.10;2.70;;;8.80;99.90;;;;;;5032439;28;20071;-46
2023/03/12 01:24:33;;;;;;;6.47;2.80;;;8.70;99.90;;;;;;5032472;28;20499;-37
2023/03/12 01:26:59;;;;;;;4.60;2.88;;;8.70;99.90;;;;;;5032330;28;20113;-37
2023/03/12 01:29:24;;;;;;;7.10;2.78;;;8.60;99.90;;;;;;5032766;28;20364;-42
2023/03/12 01:31:50;;;;;;;4.70;2.45;;;8.60;99.90;;;;;;5032253;28;20025;-37
2023/03/12 01:34:16;;;;;;;7.35;2.67;;;8.60;99.90;;;;;;5033301;28;20041;-40
2023/03/12 01:36:43;;;;;;;6.30;2.80;;;8.60;99.90;;;;;;5037572;28;20037;-40
2023/03/12 01:39:10;;;;;;;6.85;2.92;;;8.60;99.90;;;;;;5036262;28;20171;-39
2023/03/12 01:41:36;;;;;;;4.57;2.58;;;8.50;99.90;;;;;;5032678;28;20033;-40
2023/03/12 01:44:02;;;;;;;5.18;2.58;;;8.50;99.90;;;;;;5032963;28;20033;-41
2023/03/12 01:46:30;;;;;;;5.43;2.80;;;8.50;99.90;;;;;;5032398;28;20022;-42
2023/03/12 01:49:13;;;;;;;5.95;2.88;;;8.50;99.90;;;;;;5032297;28;20025;-40
2023/03/12 01:51:41;;;;;;;7.30;2.65;;;8.50;99.90;;;;;;5033178;28;20132;-37
2023/03/12 01:54:20;;;;;;;6.63;2.90;;;8.50;99.90;;;;;;5032585;28;20029;-40
2023/03/12 01:56:47;;;;;;;6.10;2.95;;;8.50;99.90;;;;;;5032340;28;20063;-38
2023/03/12 01:59:18;;;;;;;5.35;2.63;;;8.40;99.90;;;;;;5032254;28;20029;-37
2023/03/12 02:01:45;;;;;;;4.63;2.70;;;8.50;99.90;;;;;;5033483;28;20048;-38
2023/03/12 02:04:12;;;;;;;6.07;2.70;;;8.50;99.90;;;;;;5032479;28;20033;-39
2023/03/12 02:06:59;;;;;;;4.70;2.60;;;8.80;99.90;;;;;;5031120;28;20032;-41
2023/03/12 02:09:25;;;;;;;6.20;2.75;;;9.00;99.90;;;;;;5031581;28;20022;-47
2023/03/12 02:11:51;;;;;;;3.80;2.28;;;9.00;99.90;;;;;;5032262;28;20398;-37
2023/03/12 02:14:17;;;;;;;5.10;2.67;;;9.00;99.90;;;;;;5030658;28;20026;-39
2023/03/12 02:16:44;;;;;;;3.83;2.38;;;8.90;99.90;;;;;;5031639;28;20029;-47
2023/03/12 02:19:27;;;;;;;3.65;2.40;;;8.80;99.90;;;;;;5032449;28;20364;-37
2023/03/12 02:21:52;;;;;;;5.13;2.35;;;8.70;99.90;;;;;;5031503;28;20032;-36
2023/03/12 02:24:34;;;;;;;5.13;2.40;;;8.60;99.90;;;;;;5032719;28;20029;-37
2023/03/12 02:27:01;;;;;;;5.65;2.50;;;8.60;99.90;;;;;;5032129;28;20033;-41
2023/03/12 02:29:29;;;;;;;5.97;2.65;;;8.60;99.90;;;;;;5031351;28;20035;-37
2023/03/12 02:31:57;;;;;;;4.20;2.45;;;8.50;99.90;;;;;;5032710;28;20021;-36
2023/03/12 02:34:23;;;;;;;5.93;2.58;;;8.50;99.90;;;;;;5032218;28;20087;-42
2023/03/12 02:36:49;;;;;;;4.80;2.53;;;8.50;99.90;;;;;;5032620;28;20033;-36
2023/03/12 02:39:15;;;;;;;4.68;2.20;;;8.50;99.90;;;;;;5032926;28;20036;-36
2023/03/12 02:41:44;;;;;;;5.72;2.70;;;8.50;99.90;;;;;;5031186;28;20387;-42
2023/03/12 02:44:21;;;;;;;4.40;2.42;;;8.50;99.90;;;;;;5033536;28;20375;-38
2023/03/12 02:46:49;;;;;;;4.65;2.20;;;8.50;99.90;;;;;;5033899;28;20076;-38
2023/03/12 02:49:16;;;;;;;3.15;2.17;;;8.50;99.90;;;;;;5035317;28;20025;-36
2023/03/12 02:51:43;;;;;;;3.25;2.05;;;8.50;99.90;;;;;;5035106;28;20048;-38
2023/03/12 02:54:09;;;;;;;4.10;2.47;;;8.50;99.90;;;;;;5036711;28;20060;-39
2023/03/12 02:56:36;;;;;;;3.78;2.17;;;8.40;99.90;;;;;;5034804;28;20024;-38
2023/03/12 02:59:03;;;;;;;4.40;2.30;;;8.50;99.90;;;;;;5035380;28;20503;-37
2023/03/12 03:01:28;;;;;;;4.53;2.28;;;8.40;99.90;;;;;;5036084;28;20048;-40
2023/03/12 03:03:54;;;;;;;7.80;2.38;;;8.50;99.90;;;;;;5034825;28;20025;-42
2023/03/12 03:06:20;;;;;;;4.65;2.15;;;8.70;99.90;;;;;;5034858;28;20113;-42
2023/03/12 03:08:46;;;;;;;3.83;2.10;;;9.00;99.90;;;;;;5035146;28;20211;-44
2023/03/12 03:11:12;;;;;;;3.80;2.28;;;9.10;99.90;;;;;;5034688;28;20380;-36
2023/03/12 03:13:37;;;;;;;4.20;2.47;;;9.10;99.90;;;;;;5034797;28;20042;-36
2023/03/12 03:16:03;;;;;;;4.18;2.17;;;8.90;99.90;;;;;;5034484;28;20025;-37
2023/03/12 03:18:30;;;;;;;4.78;2.05;;;8.90;99.90;;;;;;5034944;28;20033;-44
2023/03/12 03:21:02;;;;;;;4.75;1.92;;;8.80;99.90;;;;;;5034731;28;20321;-36
2023/03/12 03:23:28;;;;;;;4.97;2.33;;;8.70;99.90;;;;;;5034966;28;20037;-38
2023/03/12 03:25:55;;;;;;;3.72;2.25;;;8.70;99.90;;;;;;5034667;28;20018;-37
2023/03/12 03:28:23;;;;;;;7.10;2.40;;;8.60;99.90;;;;;;5034569;28;20026;-36
2023/03/12 03:30:52;;;;;;;5.43;2.30;;;8.60;99.90;;;;;;5035178;28;20043;-37
2023/03/12 03:33:18;;;;;;;4.95;2.30;;;8.60;99.90;;;;;;5034424;28;20017;-37
2023/03/12 03:35:44;;;;;;;7.15;2.53;;;8.50;99.90;;;;;;5034352;28;20364;-39
2023/03/12 03:38:09;;;;;;;5.70;2.65;;;8.50;99.90;;;;;;5034381;28;20120;-37
2023/03/12 03:40:35;;;;;;;4.93;2.50;;;8.50;99.90;;;;;;5035123;28;20029;-38
2023/03/12 03:43:02;;;;;;;6.07;2.85;;;8.50;99.90;;;;;;5035339;28;20028;-37
2023/03/12 03:45:27;;;;;;;4.43;2.80;;;8.50;99.90;;;;;;5034562;28;20026;-41
2023/03/12 03:47:53;;;;;;;5.38;2.30;;;8.50;99.90;;;;;;5034315;28;20030;-43
2023/03/12 03:50:19;;;;;;;4.50;2.20;;;8.40;99.90;;;;;;5035890;28;20053;-37
2023/03/12 03:52:45;;;;;;;5.10;2.40;;;8.40;99.90;;;;;;5034743;28;20399;-39
2023/03/12 03:55:11;;;;;;;4.00;2.55;;;8.50;99.90;;;;;;5034102;28;20491;-38
2023/03/12 03:57:36;;;;;;;4.10;2.38;;;8.40;99.90;;;;;;5033939;28;20032;-44
2023/03/12 04:00:07;;;;;;;3.97;2.53;;;8.40;99.90;;;;;;5033964;28;20219;-37
2023/03/12 04:02:33;;;;;;;3.97;2.20;;;8.40;99.90;;;;;;5033971;28;20021;-38
2023/03/12 04:04:59;;;;;;;4.40;2.38;;;8.50;99.90;;;;;;5033969;28;20034;-43
2023/03/12 04:07:25;;;;;;;5.68;2.55;;;8.80;99.90;;;;;;5034085;28;20025;-40
2023/03/12 04:09:51;;;;;;;4.95;2.45;;;9.00;99.90;;;;;;5033734;28;20029;-44
2023/03/12 04:12:17;;;;;;;4.20;2.30;;;9.10;99.90;;;;;;5034213;28;20084;-37
2023/03/12 04:14:42;;;;;;;3.65;2.13;;;9.00;99.90;;;;;;5033962;28;20030;-45
2023/03/12 04:17:08;;;;;;;4.57;2.45;;;8.90;99.90;;;;;;5033617;28;20554;-44
2023/03/12 04:19:34;;;;;;;4.18;2.28;;;8.80;99.90;;;;;;5033703;28;20065;-44
2023/03/12 04:22:00;;;;;;;4.53;2.20;;;8.70;99.90;;;;;;5033629;28;20035;-43
2023/03/12 04:24:26;;;;;;;5.55;2.53;;;8.60;99.90;;;;;;5033305;28;20112;-41
2023/03/12 04:26:51;;;;;;;4.13;2.33;;;8.60;99.90;;;;;;5033694;28;20101;-37
2023/03/12 04:29:18;;;;;;;3.92;2.13;;;8.50;99.90;;;;;;5033833;28;20049;-41
2023/03/12 04:31:44;;;;;;;5.57;2.28;;;8.50;99.90;;;;;;5034174;28;20025;-38
2023/03/12 04:34:11;;;;;;;3.63;2.20;;;8.50;99.90;;;;;;5034259;28;20053;-43
2023/03/12 04:36:37;;;;;;;5.97;2.45;;;8.50;99.90;;;;;;5043792;28;20029;-36
2023/03/12 04:39:06;;;;;;;3.92;1.92;;;8.50;99.90;;;;;;5041334;28;20072;-37
2023/03/12 04:41:32;;;;;;;3.75;2.15;;;8.50;99.90;;;;;;5035138;28;20018;-37
2023/03/12 04:43:58;;;;;;;3.00;2.10;;;8.50;99.90;;;;;;5033093;28;20483;-43
2023/03/12 04:46:24;;;;;;;4.25;2.08;;;8.40;99.90;;;;;;5033252;28;20021;-37
2023/03/12 04:48:49;;;;;;;3.65;1.92;;;8.40;99.90;;;;;;5034812;28;20017;-37
2023/03/12 04:51:15;;;;;;;4.55;2.22;;;8.40;99.90;;;;;;5033268;28;20464;-37
2023/03/12 04:53:41;;;;;;;3.47;1.90;;;8.40;99.90;;;;;;5032859;28;20048;-40
2023/03/12 04:56:07;;;;;;;3.28;2.13;;;8.40;99.90;;;;;;5047853;28;20122;-38
2023/03/12 04:58:33;;;;;;;4.25;1.88;;;8.40;99.90;;;;;;5032841;28;20029;-37
2023/03/12 05:00:59;;;;;;;5.50;2.40;;;8.40;99.90;;;;;;5032805;28;20342;-44
2023/03/12 05:03:24;;;;;;;4.15;1.90;;;8.40;99.90;;;;;;5032803;28;20057;-35
2023/03/12 05:05:50;;;;;;;5.25;2.10;;;8.60;99.90;;;;;;5031906;28;20056;-38
2023/03/12 05:08:16;;;;;;;5.60;2.40;;;8.90;99.90;;;;;;5032873;28;20498;-37
2023/03/12 05:10:44;;;;;;;3.08;2.22;;;9.10;99.90;;;;;;5032954;28;20464;-40
2023/03/12 05:13:19;;;;;;;4.20;2.15;;;9.00;99.90;;;;;;5032529;28;20045;-40
2023/03/12 05:15:46;;;;;;;3.78;2.22;;;8.90;99.90;;;;;;5032461;28;20029;-37
2023/03/12 05:18:12;;;;;;;3.90;2.35;;;8.80;99.90;;;;;;5032461;28;20017;-39
2023/03/12 05:20:38;;;;;;;6.57;2.10;;;8.70;99.90;;;;;;5032440;28;20438;-38
2023/03/12 05:23:04;;;;;;;3.67;2.10;;;8.70;99.90;;;;;;5032497;28;20025;-40
2023/03/12 05:25:30;;;;;;;8.07;3.60;;;8.60;99.90;;;;;;5032635;28;20383;-42
2023/03/12 05:27:55;;;;;;;8.57;4.43;;;8.60;99.90;;;;;;5032366;28;20053;-45
2023/03/12 05:30:21;;;;;;;5.82;3.33;;;8.50;99.90;;;;;;5032244;28;20029;-42
2023/03/12 05:32:47;;;;;;;7.43;3.08;;;8.50;99.90;;;;;;5032170;28;20026;-40
2023/03/12 05:35:12;;;;;;;4.68;2.80;;;8.50;99.90;;;;;;5032165;28;20041;-45
2023/03/12 05:37:41;;;;;;;4.60;2.88;;;8.50;99.90;;;;;;5031892;28;20364;-39
2023/03/12 05:40:10;;;;;;;5.05;2.90;;;8.40;99.90;;;;;;5032037;28;20033;-38
2023/03/12 05:42:36;;;;;;;3.83;2.53;;;8.40;99.90;;;;;;5032284;28;20057;-37
2023/03/12 05:45:02;;;;;;;4.03;2.60;;;8.40;99.90;;;;;;5032058;28;20491;-36
2023/03/12 05:47:28;;;;;;;4.88;2.88;;;8.40;99.90;;;;;;5031840;28;20376;-42
2023/03/12 05:49:54;;;;;;;4.20;2.63;;;8.40;99.90;;;;;;5031940;28;20037;-44
2023/03/12 05:52:19;;;;;;;4.93;3.10;;;8.40;99.90;;;;;;5031944;28;20052;-42
2023/03/12 05:54:45;;;;;;;5.53;3.20;;;8.40;99.90;;;;;;5031742;28;20079;-40
2023/03/12 05:57:10;;;;;;;4.57;2.80;;;8.30;99.90;;;;;;5031646;28;20033;-37
2023/03/12 05:59:36;;;;;;;4.10;2.80;;;8.30;99.90;;;;;;5031736;28;20029;-41
2023/03/12 06:02:02;;;;;;;5.65;3.25;;;8.30;99.90;;;;;;5031513;28;20030;-37
2023/03/12 06:04:28;;;;;;;5.50;2.80;;;8.40;99.90;;;;;;5032125;28;20029;-42
2023/03/12 06:06:53;;;;;;;6.68;2.80;;;8.70;99.90;;;;;;5031426;28;20030;-38
2023/03/12 06:09:19;;;;;;;5.88;3.00;;;9.00;99.90;;;;;;5031843;28;20025;-40
2023/03/12 06:11:45;;;;;;;5.43;2.88;;;9.00;99.90;;;;;;5031454;28;20122;-42
2023/03/12 06:14:10;;;;;;;5.53;3.58;;;9.00;99.90;;;;;;5031545;28;20479;-36
2023/03/12 06:16:36;;;;;;;4.65;3.13;;;8.90;99.90;;;;;;5031218;28;20029;-36
2023/03/12 06:19:02;;;;;;;3.42;2.75;;;8.80;99.90;;;;;;5045929;28;20044;-42
2023/03/12 06:21:31;;;;;;;4.68;3.03;;;8.70;99.90;;;;;;5032473;28;20021;-39
2023/03/12 06:23:57;;;;;;;6.88;3.10;;;8.70;99.90;;;;;;5032689;28;20033;-36
2023/03/12 06:26:24;;;;;;;4.68;3.03;;;8.60;99.90;;;;;;5031494;28;20487;-43
2023/03/12 06:28:50;;;;;;;6.20;3.30;;;8.50;99.90;;;;;;5032418;28;20033;-37
2023/03/12 06:31:16;;;;;;;5.55;2.83;;;8.50;99.90;;;;;;5031596;28;20028;-38
2023/03/12 06:33:42;;;;;;;3.97;2.67;;;8.50;99.90;;;;;;5031545;28;20029;-37
2023/03/12 06:36:08;;;;;;;4.60;2.97;;;8.40;99.90;;;;;;5031825;28;20022;-41
2023/03/12 06:38:34;;;;;;;5.45;3.10;;;8.40;99.90;;;;;;5032155;28;20045;-36
2023/03/12 06:41:12;;;;;;;4.45;2.80;;;8.40;99.90;;;;;;5031876;28;20026;-45
2023/03/12 06:43:39;;;;;;;5.47;3.38;;;8.40;99.90;;;;;;5031312;28;20037;-42
2023/03/12 06:46:06;;;;;;;5.55;3.05;;;8.40;99.90;;;;;;5031003;28;20034;-43
2023/03/12 06:48:35;;;;;;;5.47;3.10;;;8.30;99.90;;;;;;5031278;28;20087;-36
2023/03/12 06:51:04;;;;;;;4.95;3.00;;;8.40;99.90;;;;;;5031272;28;20018;-43
2023/03/12 06:53:30;;;;;;;4.78;3.03;;;8.40;99.90;;;;;;5031177;28;20120;-41
2023/03/12 06:55:56;;;;;;;6.47;3.10;;;8.30;99.90;;;;;;5031352;28;20037;-36
2023/03/12 06:58:22;;;;;;;6.03;2.92;;;8.30;99.90;;;;;;5031106;28;20025;-40
2023/03/12 07:00:48;;;;;;;6.65;3.25;;;8.30;99.90;;;;;;5031200;28;20509;-37
2023/03/12 07:03:13;;;;;;;5.72;2.90;;;8.30;99.90;;;;;;5031092;28;20030;-40
2023/03/12 07:05:42;;;;;;;5.85;2.95;;;8.50;99.90;;;;;;5031417;28;20376;-37
2023/03/12 07:08:07;;;;;;;4.22;2.42;;;8.80;99.90;;;;;;5031112;28;20467;-44
2023/03/12 07:10:33;;;;;;;5.72;2.92;;;8.90;99.90;;;;;;5031070;28;20029;-40
2023/03/12 07:12:58;;;;;;;5.53;2.75;;;8.90;99.90;;;;;;5030825;28;20021;-37
2023/03/12 07:15:24;;;;;;;5.45;3.03;;;8.80;99.90;;;;;;5031103;28;20037;-44
2023/03/12 07:17:50;;;;;;;6.50;2.78;;;8.70;99.90;;;;;;5030823;28;20510;-46
2023/03/12 07:20:16;;;;;;;6.25;3.25;;;8.70;99.90;;;;;;5030877;28;20029;-42
2023/03/12 07:22:41;;;;;;;6.50;2.83;;;8.60;99.90;;;;;;5030978;28;20394;-46
2023/03/12 07:25:08;;;;;;;5.10;3.13;;;8.50;99.90;;;;;;5030888;28;20057;-36
2023/03/12 07:27:34;;;;;;;5.05;3.25;;;8.50;99.90;;;;;;5030790;28;20021;-38
2023/03/12 07:29:59;;;;;;;5.47;3.13;;;8.50;99.90;;;;;;5033383;28;20411;-44
2023/03/12 07:32:25;;;;;;;4.00;2.80;;;8.40;99.90;;;;;;5035057;28;20028;-48
2023/03/12 07:34:51;;;;;;;5.55;3.13;;;8.40;99.90;;;;;;5038182;28;20061;-38
2023/03/12 07:37:16;;;;;;;4.05;2.70;;;8.40;99.90;;;;;;5045919;28;20030;-37
2023/03/12 07:39:43;;;;;;;5.25;3.13;;;8.40;99.90;;;;;;5055419;28;20029;-36
2023/03/12 07:42:09;;;;;;;5.95;3.20;;;8.40;99.90;;;;;;5034737;28;20083;-46
2023/03/12 07:44:35;;;;;;;4.72;2.92;;;8.40;99.90;;;;;;5034501;28;20029;-37
2023/03/12 07:47:01;;;;;;;6.55;3.15;;;8.40;99.90;;;;;;5034057;28;20101;-37
2023/03/12 07:49:27;;;;;;;4.72;2.90;;;8.40;99.90;;;;;;5034216;28;20068;-41
2023/03/12 07:51:52;;;;;;;4.68;2.83;;;8.40;99.90;;;;;;5034291;28;20098;-41
2023/03/12 07:54:18;;;;;;;4.82;2.92;;;8.40;99.90;;;;;;5034374;28;20548;-41
2023/03/12 07:56:43;;;;;;;4.55;3.08;;;8.40;99.90;;;;;;5033943;28;20026;-38
2023/03/12 07:59:09;;;;;;;4.30;3.00;;;8.40;99.90;;;;;;5034571;28;20032;-37
2023/03/12 08:01:35;;;;;;;3.80;2.63;;;8.40;99.90;;;;;;5034493;28;20038;-36
2023/03/12 08:04:01;;;;;;;5.05;2.85;;;8.50;99.90;;;;;;5034433;28;20419;-37
2023/03/12 08:06:28;;;;;;;5.70;3.05;;;8.50;99.90;;;;;;5034372;28;20041;-42
2023/03/12 08:08:53;;;;;;;4.97;3.30;;;8.50;99.90;;;;;;5033818;28;20021;-41
2023/03/12 08:11:20;;;;;;;3.90;2.95;;;8.40;99.90;;;;;;5033669;28;20028;-37
2023/03/12 08:13:45;;;;;;;3.80;2.80;;;8.40;99.90;;;;;;5033649;28;20111;-42
2023/03/12 08:16:12;;;;;;;3.78;2.95;;;8.40;99.90;;;;;;5035065;28;20076;-37
2023/03/12 08:18:37;;;;;;;5.25;2.95;;;8.40;99.90;;;;;;5035104;28;20033;-42
2023/03/12 08:21:03;;;;;;;5.75;3.10;;;8.40;99.90;;;;;;5033620;28;20026;-42
2023/03/12 08:23:29;;;;;;;4.75;3.00;;;8.40;99.90;;;;;;5033450;28;20029;-41
2023/03/12 08:25:55;;;;;;;5.20;2.90;;;8.40;99.90;;;;;;5033336;28;20501;-45
2023/03/12 08:28:22;;;;;;;5.60;3.28;;;8.40;99.90;;;;;;5034439;28;20079;-39
2023/03/12 08:30:50;;;;;;;4.53;2.72;;;8.40;99.90;;;;;;5035630;28;20036;-37
2023/03/12 08:33:16;;;;;;;6.13;3.10;;;8.40;99.90;;;;;;5033720;28;20079;-35
2023/03/12 08:35:42;;;;;;;5.43;3.13;;;8.40;99.90;;;;;;5033762;28;20383;-38
2023/03/12 08:38:08;;;;;;;4.20;2.90;;;8.40;99.90;;;;;;5033706;28;20021;-40
2023/03/12 08:40:34;;;;;;;5.55;3.10;;;8.40;99.90;;;;;;5033551;28;20407;-37
2023/03/12 08:42:59;;;;;;;3.72;2.75;;;8.40;99.90;;;;;;5033344;28;20442;-38
2023/03/12 08:45:25;;;;;;;4.55;3.05;;;8.40;99.90;;;;;;5033200;28;20052;-40
2023/03/12 08:47:51;;;;;;;4.72;3.20;;;8.30;99.90;;;;;;5034118;28;20025;-36
2023/03/12 08:50:17;;;;;;;5.32;3.28;;;8.40;99.90;;;;;;5033461;28;20507;-41
2023/03/12 08:52:43;;;;;;;4.45;3.20;;;8.30;99.90;;;;;;5033771;28;20025;-45
2023/03/12 08:55:11;;;;;;;4.90;3.10;;;8.40;99.90;;;;;;5032799;28;20030;-38
2023/03/12 08:57:37;;;;;;;5.50;3.13;;;8.40;99.90;;;;;;5032743;28;20029;-37
2023/03/12 09:00:06;;;;;;;5.53;3.15;;;8.30;99.90;;;;;;5033238;28;20029;-37
2023/03/12 09:02:32;;;;;;;5.47;2.97;;;8.30;99.90;;;;;;5032777;28;20025;-39
2023/03/12 09:04:58;;;;;;;3.80;2.80;;;8.30;99.90;;;;;;5034715;28;20021;-37
2023/03/12 09:07:23;;;;;;;5.82;3.45;;;8.30;99.90;;;;;;5033286;28;20021;-45
2023/03/12 09:09:49;;;;;;;4.22;2.85;;;8.30;99.90;;;;;;5033404;28;20022;-42
2023/03/12 09:12:15;;;;;;;4.57;3.10;;;8.30;99.90;;;;;;5032828;28;20140;-37
2023/03/12 09:14:40;;;;;;;5.30;3.40;;;8.30;99.90;;;;;;5032917;28;20033;-39
2023/03/12 09:17:06;;;;;;;4.03;2.60;;;8.30;99.90;;;;;;5032579;28;20033;-37
2023/03/12 09:19:31;;;;;;;4.57;2.88;;;8.40;99.90;;;;;;5032785;28;20503;-40
2023/03/12 09:21:57;;;;;;;6.78;3.17;;;8.40;99.90;;;;;;5032699;28;20036;-45
2023/03/12 09:24:23;;;;;;;5.05;2.42;;;8.40;99.90;;;;;;5032859;28;20483;-39
2023/03/12 09:26:49;;;;;;;4.57;2.95;;;8.40;99.90;;;;;;5033444;28;20057;-43
2023/03/12 09:29:14;;;;;;;4.40;2.97;;;8.40;99.90;;;;;;5032499;28;20088;-46
2023/03/12 09:31:40;;;;;;;4.82;3.30;;;8.40;99.90;;;;;;5032371;28;20017;-47
2023/03/12 09:34:06;;;;;;;4.82;3.33;;;8.40;99.90;;;;;;5032212;28;20097;-43
2023/03/12 09:36:32;;;;;;;4.03;2.72;;;8.40;99.90;;;;;;5032516;28;20106;-40
2023/03/12 09:38:57;;;;;;;4.20;2.83;;;8.40;99.90;;;;;;5031954;28;20044;-40
2023/03/12 09:41:26;;;;;;;4.72;2.70;;;8.40;99.90;;;;;;5032430;28;20040;-40
2023/03/12 09:44:15;;;;;;;3.50;2.38;;;8.40;99.90;;;;;;5031142;28;20028;-43
2023/03/12 09:46:50;;;;;;;3.47;2.65;;;8.40;99.90;;;;;;5032219;28;20025;-42
2023/03/12 09:49:34;;;;;;;3.90;2.85;;;8.40;99.90;;;;;;5032050;28;20101;-37
2023/03/12 09:52:07;;;;;;;5.22;2.55;;;8.40;99.90;;;;;;5031840;28;20395;-45
2023/03/12 09:54:45;;;;;;;3.05;2.30;;;8.40;99.90;;;;;;5031612;28;20034;-42
2023/03/12 09:57:18;;;;;;;5.32;2.55;;;8.40;99.90;;;;;;5047073;28;20025;-42
2023/03/12 09:59:43;;;;;;;3.72;2.65;;;8.40;99.90;;;;;;5032544;28;20116;-37
2023/03/12 10:02:56;;;;;;;3.97;2.75;;;8.40;99.90;;;;;;5032234;28;20117;-42
2023/03/12 10:05:45;;;;;;;3.60;2.28;;;8.40;99.90;;;;;;5005113;28;20045;-37
2023/03/12 10:08:11;;;;;;;5.78;2.67;;;8.40;99.90;;;;;;5032176;28;20101;-37
2023/03/12 10:10:39;;;;;;;3.85;2.40;;;8.40;99.90;;;;;;5031900;28;20523;-38
2023/03/12 10:13:11;;;;;;;4.05;2.40;;;8.40;99.90;;;;;;5031794;28;20025;-37
2023/03/12 10:15:42;;;;;;;4.47;2.53;;;8.40;99.90;;;;;;5031756;28;20044;-40
2023/03/12 10:18:42;;;;;;;6.85;2.47;;;8.40;99.90;;;;;;5031570;28;20017;-37
2023/03/12 10:21:26;;;;;;;3.00;2.20;;;8.40;99.90;;;;;;5032119;28;20491;-36
2023/03/12 10:24:09;;;;;;;4.22;2.42;;;8.40;99.90;;;;;;5032760;28;20028;-38
2023/03/12 10:26:49;;;;;;;3.10;2.20;;;8.40;99.90;;;;;;5033087;28;20026;-37
2023/03/12 10:29:23;;;;;;;4.00;2.45;;;8.40;99.90;;;;;;5050089;28;20056;-37
2023/03/12 10:32:15;;;;;;;5.00;2.50;;;8.50;99.90;;;;;;5041500;28;20029;-38
2023/03/12 10:35:03;;;;;;;2.42;2.00;;;8.50;99.90;;;;;;5024059;28;20044;-37
2023/03/12 10:37:44;;;;;;;4.10;2.35;;;8.50;99.90;;;;;;5031698;28;20030;-37
2023/03/12 10:40:21;;;;;;;2.67;1.83;;;8.50;99.90;;;;;;5032068;28;20132;-39
2023/03/12 10:42:47;;;;;;;4.32;2.13;;;8.50;99.90;;;;;;5031728;28;20186;-45
2023/03/12 10:45:41;;;;;;;3.13;2.40;;;8.50;99.90;;;;;;5031104;28;20032;-43
2023/03/12 10:48:10;;;;;;;2.33;1.88;;;8.50;99.90;;;;;;5031359;28;20052;-40
2023/03/12 10:50:38;;;;;;;2.83;1.98;;;8.50;99.90;;;;;;5032125;28;20030;-37
2023/03/12 10:53:22;;;;;;;2.78;2.10;;;8.50;99.90;;;;;;5031106;28;20022;-36
2023/03/12 10:56:03;;;;;;;3.13;2.00;;;8.50;99.90;;;;;;5030917;28;20037;-38
2023/03/12 10:58:41;;;;;;;2.60;2.00;;;8.50;99.90;;;;;;5031289;28;20483;-40
2023/03/12 11:01:26;;;;;;;2.72;2.08;;;8.50;99.90;;;;;;5030971;28;20029;-42
2023/03/12 11:03:52;;;;;;;;;;;8.50;99.90;;;;;;5032149;28;20025;-41
2023/03/12 11:06:28;;;;;;;2.85;1.77;;;8.50;99.90;;;;;;5035018;28;19959;-41
2023/03/12 11:09:16;;;;;;;3.60;1.67;;;8.50;99.90;;;;;;5035320;28;20017;-42
2023/03/12 11:11:44;;;;;;;2.75;1.70;;;8.50;99.90;;;;;;5034940;28;20169;-42
2023/03/12 11:14:19;;;;;;;2.85;2.00;;;8.50;99.90;;;;;;5034953;28;20032;-43
2023/03/12 11:16:45;;;;;;;2.05;1.60;;;8.50;99.90;;;;;;5034567;28;20068;-41
2023/03/12 11:19:13;;;;;;;1.92;1.35;;;8.50;99.90;;;;;;5034781;28;20111;-43
2023/03/12 11:21:52;;;;;;;2.45;1.65;;;8.50;99.90;;;;;;5034716;28;20112;-42
2023/03/12 11:24:18;;;;;;;3.08;1.70;;;8.50;99.90;;;;;;5034729;28;20030;-43
2023/03/12 11:26:48;;;;;;;2.63;1.88;;;8.50;99.90;;;;;;5034603;28;20025;-41
2023/03/12 11:29:38;;;;;;;1.92;1.40;;;8.60;99.90;;;;;;5034972;28;20039;-40
2023/03/12 11:32:17;;;;;;;3.70;1.60;;;8.60;99.90;;;;;;5035405;28;20067;-40
2023/03/12 11:34:48;;;;;;;3.75;1.60;;;8.60;99.90;;;;;;5034721;28;20025;-40
2023/03/12 11:37:51;;;;;;;3.20;1.73;;;8.60;99.90;;;;;;5034388;28;20400;-43
2023/03/12 11:40:52;;;;;;;2.45;1.52;;;8.60;99.90;;;;;;5034639;28;20022;-37
2023/03/12 11:43:24;;;;;;;1.98;1.42;;;8.60;99.90;;;;;;5025834;28;20042;-39
2023/03/12 11:46:33;;;;;;;2.13;1.58;;;8.60;99.90;;;;;;5038231;28;20045;-36
2023/03/12 11:49:37;;;;;;;2.75;1.52;;;8.60;99.90;;;;;;5024067;28;20045;-37
2023/03/12 11:52:16;;;;;;;2.22;1.50;;;8.60;99.90;;;;;;5034735;28;20121;-41
2023/03/12 11:55:16;;;;;;;3.25;1.40;;;8.70;99.90;;;;;;5034312;28;20018;-36
2023/03/12 11:57:41;;;;;;;1.80;1.48;;;8.60;99.90;;;;;;5034381;28;20548;-40
2023/03/12 12:00:20;;;;;;;2.40;1.60;;;8.60;99.90;;;;;;5034128;28;20029;-37
2023/03/12 12:03:17;;;;;;;2.78;1.58;;;8.60;99.90;;;;;;5034367;28;20049;-37
2023/03/12 12:06:05;;;;;;;2.88;1.42;;;8.60;99.90;;;;;;5034005;28;20087;-39
2023/03/12 12:08:35;;;;;;;4.85;1.63;;;8.70;99.90;;;;;;5035253;28;20021;-39
2023/03/12 12:11:05;;;;;;;6.43;1.85;;;8.70;99.90;;;;;;5033936;28;20022;-35
2023/03/12 12:13:30;;;;;;;7.18;1.85;;;8.70;99.90;;;;;;5033662;28;20022;-41
2023/03/12 12:16:33;;;;;;;5.30;1.80;;;8.70;99.90;;;;;;5033323;28;20037;-41
2023/03/12 12:19:14;;;;;;;6.57;1.80;;;8.80;99.90;;;;;;5034171;28;20040;-36
2023/03/12 12:21:58;;;;;;;6.00;2.03;;;8.80;99.90;;;;;;5033508;28;20021;-41
2023/03/12 12:25:01;;;;;;;6.65;2.13;;;8.90;99.90;;;;;;5033487;28;20052;-36
2023/03/12 12:27:31;;;;;;;4.93;1.90;;;8.90;99.90;;;;;;5033787;28;20025;-35
2023/03/12 12:30:30;;;;;;;6.15;2.20;;;8.90;99.90;;;;;;5033281;28;20033;-39
2023/03/12 12:33:22;;;;;;;10.48;2.25;;;8.90;99.90;;;;;;5033413;28;20057;-39
2023/03/12 12:35:48;;;;;;;4.30;1.90;;;8.90;99.90;;;;;;5033283;28;20048;-38
2023/03/12 12:38:40;;;;;;;4.15;1.75;;;8.90;99.90;;;;;;5034176;28;20025;-36
2023/03/12 12:41:13;;;;;;;9.07;1.85;;;8.90;99.90;;;;;;5030536;28;20037;-36
2023/03/12 12:43:47;;;;;;;5.82;1.60;;;8.90;99.90;;;;;;5033345;28;20527;-39
2023/03/12 12:46:22;;;;;;;5.10;1.80;;;8.90;99.90;;;;;;5033703;28;20033;-41
2023/03/12 12:49:07;;;;;;;7.40;1.83;;;9.00;99.90;;;;;;5033433;28;20100;-42
2023/03/12 12:51:38;;;;;;;5.80;1.83;;;8.90;99.90;;;;;;5033265;28;20021;-40
2023/03/12 12:54:20;;;;;;;4.30;1.42;;;8.90;99.90;;;;;;5033624;28;20025;-38
2023/03/12 12:56:50;;;;;;;5.75;2.20;;;8.90;99.90;;;;;;5033061;28;20076;-36
2023/03/12 12:59:30;;;;;;;8.15;2.08;;;8.90;99.90;;;;;;5033532;28;20364;-36
2023/03/12 13:01:58;;;;;;;7.13;1.50;;;9.00;99.90;;;;;;5033168;28;20576;-36
2023/03/12 13:04:29;;;;;;;7.32;1.55;;;9.00;99.90;;;;;;5033176;28;20076;-36
2023/03/12 13:07:01;;;;;;;4.35;1.50;;;9.00;99.90;;;;;;5033589;28;20030;-36
2023/03/12 13:09:38;;;;;;;5.63;1.70;;;9.00;99.90;;;;;;5032867;28;20494;-36
2023/03/12 13:12:15;;;;;;;6.25;1.60;;;9.00;99.90;;;;;;5032923;28;20021;-38